Terminal Aerodrome Forecast
Issued by NWS North Platte, NE

Home | Current Version | Previous Version | Graphics & Text | Print | Product List | Glossary On
Versions: 1 2 3 4 5 6 7 8 9 10 11 12 13 14 15 16 17 18 19
000
FTUS43 KLBF 251100
TAFVTN
TAF
KVTN 251129Z 2512/2612 22009KT P6SM BKN200
     FM251700 22011KT P6SM BKN070 OVC150
     FM252000 25011KT P6SM OVC060 PROB30 2521/2601 5SM -SHRASN
      OVC015
     FM260100 33017G27KT P6SM SCT015 OVC025=

USA.gov is the U.S. government's official web portal to all federal, state and local government web resources and services.